Nearby METAR Reports

 

KSJC - San Jose, California, USA
Distance from station: NE 9mi, 14km
Updated: Thu, 13-Jun-2024 9:53pm PDT
Clear
Clear
 Wind from NNW
Wind: NNW 7 mph, 11 km/h
Temperature: 59°F, 15°C
Dew Point: 48°F, 9°C
Humidity: 68%
Barometer: 30.05 inHg, 1017.6 hPa
Clouds: Clear
Visibility: 8 miles, 13 km
2024/06/14 04:53 KSJC 140453Z 33006KT 8SM CLR 15/09 A3005 RMK AO2 SLP173 T01500094
KNUQ - Moffett Nas/Mtn, California, USA
Distance from station: N 9mi, 14km
Updated: Thu, 13-Jun-2024 10:35pm PDT
Clear
Clear
 Wind from ENE
Wind: ENE 9 mph, 15 km/h
Temperature: 57°F, 14°C
Dew Point: 50°F, 10°C
Humidity: 77%
Barometer: 30.05 inHg, 1017.6 hPa
Clouds: Clear
Visibility: 7 miles, 11 km
2024/06/14 05:35 KNUQ 140535Z AUTO 06008KT 7SM CLR 14/10 A3005 RMK AO2
 
KPAO - Palo Alto, California, USA
Distance from station: NNW 14mi, 23km
Updated: Thu, 13-Jun-2024 8:47pm PDT
NOT Current
Clear
Clear
 Wind from NW
Wind: NW 12 mph, 19 km/h
Temperature: 57°F, 14°C
Dew Point: 46°F, 8°C
Humidity: 67%
Barometer: 30.03 inHg, 1016.9 hPa
Clouds: Clear
Visibility: 10 miles, 16 km
2024/06/14 03:47 KPAO 140347Z 32010KT 10SM SKC 14/08 A3003 RMK LAST
KRHV - San Jose/Reid, California, USA
Distance from station: ENE 12mi, 19km
Updated: Thu, 13-Jun-2024 9:55pm PDT
Clear
Clear
 Wind from WNW
Wind: WNW 5 mph, 7 km/h
Temperature: 59°F, 15°C
Dew Point: 48°F, 9°C
Humidity: 68%
Barometer: 30.05 inHg, 1017.6 hPa
Clouds: Clear
Visibility: 10 miles, 16 km
2024/06/14 04:55 KRHV 140455Z 30004KT 10SM SKC 15/09 A3005 RMK LAST
 
KOAK - Oakland, California, USA
Distance from station: NNW 31mi, 50km
Updated: Thu, 13-Jun-2024 9:53pm PDT
Mostly cloudy
Mostly cloudy
 Wind from WSW
Wind: WSW 14 mph, 22 km/h, Gust: 24 mph, 39 km/h
Temperature: 57°F, 14°C
Dew Point: 52°F, 11°C
Humidity: 82%
Barometer: 30.05 inHg, 1017.6 hPa
Clouds: Mostly cloudy
Visibility: 10 miles, 16 km
Cloud details: Mostly cloudy 1400 ft
Mostly cloudy 1900 ft
2024/06/14 04:53 KOAK 140453Z 24012G21KT 10SM BKN014 BKN019 14/11 A3005 RMK AO2 SLP177 T01390106
KSQL - San Carlos Airpo, California, USA
Distance from station: NW 21mi, 34km
Updated: Thu, 13-Jun-2024 10:35pm PDT
Clear
Clear
 Wind from NW
Wind: NW 6 mph, 9 km/h
Temperature: 57°F, 14°C
Dew Point: 46°F, 8°C
Humidity: 67%
Barometer: 30.05 inHg, 1017.6 hPa
Clouds: Clear
Visibility: 7 miles, 11 km
2024/06/14 05:35 KSQL 140535Z AUTO 32005KT 7SM CLR 14/08 A3005 RMK AO2
 
KSFO - San Francisco, California, USA
Distance from station: NW 30mi, 49km
Updated: Thu, 13-Jun-2024 9:56pm PDT
Partly cloudy
Partly cloudy
 Wind from WSW
Wind: WSW 13 mph, 20 km/h
Temperature: 54°F, 12°C
Dew Point: 48°F, 9°C
Humidity: 82%
Barometer: 30.05 inHg, 1017.6 hPa
Clouds: Partly cloudy
Visibility: 10 miles, 16 km
Cloud details: Few Clouds 800 ft
Partly cloudy 1400 ft
2024/06/14 04:56 KSFO 140456Z 25011KT 10SM FEW008 SCT014 12/09 A3005 RMK AO2 SLP175 T01220089
KE16 - San Martin, California, USA
Distance from station: ESE 27mi, 43km
Updated: Thu, 13-Jun-2024 10:35pm PDT
Mist, Partly cloudy
Mist, Partly cloudy
 Wind from SE
Wind: SE 9 mph, 15 km/h
Temperature: 54°F, 12°C
Dew Point: 48°F, 9°C
Humidity: 82%
Barometer: 30.09 inHg, 1019 hPa
Summary: Mist
Clouds: Partly cloudy
Visibility: 6 miles, 10 km
Cloud details: Partly cloudy 1400 ft
2024/06/14 05:35 KE16 140535Z AUTO 13008KT 6SM BR SCT014 12/09 A3009 RMK AO2 PWINO PNO
 
KWVI - Watsonville, California, USA
Distance from station: SSE 27mi, 44km
Updated: Thu, 13-Jun-2024 9:53pm PDT
Overcast
Overcast
 Wind from SSW
Wind: SSW 3 mph, 6 km/h
Temperature: 52°F, 11°C
Dew Point: 50°F, 10°C
Humidity: 94%
Barometer: 30.08 inHg, 1018.6 hPa
Clouds: Overcast
Visibility: 9 miles, 14 km
Cloud details: Overcast 800 ft
2024/06/14 04:53 KWVI 140453Z AUTO 21003KT 9SM OVC008 11/10 A3008 RMK AO2 SLP187 T01110100
KHAF - Half Moon Bay, California, USA
Distance from station: WNW 31mi, 50km
Updated: Thu, 13-Jun-2024 10:35pm PDT
Mist, Overcast
Mist, Overcast
 Wind from calm
Wind: Calm
Temperature: 54°F, 12°C
Dew Point: 52°F, 11°C
Humidity: 94%
Barometer: 30.08 inHg, 1018.6 hPa
Summary: Mist
Clouds: Overcast
Visibility: 4 miles, 6 km
Cloud details: Overcast 1200 ft
2024/06/14 05:35 KHAF 140535Z AUTO 00000KT 4SM BR OVC012 12/11 A3008 RMK AO2
 
KHWD - Hayward, California, USA
Distance from station: N 28mi, 44km
Updated: Thu, 13-Jun-2024 9:54pm PDT
Clear
Clear
 Wind from W
Wind: W 12 mph, 19 km/h
Temperature: 57°F, 14°C
Dew Point: 48°F, 9°C
Humidity: 72%
Barometer: 30.05 inHg, 1017.6 hPa
Clouds: Clear
Visibility: 10 miles, 16 km
2024/06/14 04:54 KHWD 140454Z AUTO 28010KT 10SM CLR 14/09 A3005 RMK AO2 SLP185 T01390094
KLVK - Livermore, California, USA
Distance from station: NNE 31mi, 51km
Updated: Thu, 13-Jun-2024 9:53pm PDT
Light rain, Clear
Light rain, Clear
 Wind from WNW
Wind: WNW 13 mph, 20 km/h, Gust: 26 mph, 43 km/h
Temperature: 54°F, 12°C
Dew Point: 48°F, 9°C
Humidity: 82%
Barometer: 30.01 inHg, 1016.3 hPa
Summary: Light rain
Clouds: Clear
Visibility: 9 miles, 14 km
2024/06/14 04:53 KLVK 140453Z 29011G23KT 9SM -RA CLR 12/09 A3001 RMK AO2 RAB03 SLP159 P0000 T01220089